Time;durP1;ratioP1;P1;durP2;ratioP2;P2;SDS_P1;SDS_P2;PMS_P1;PMS_P2;Temp;Humidity;BMP_temperature;BMP_pressure;BME280_temperature;BME280_humidity;BME280_pressure;Samples;Min_cycle;Max_cycle;Signal;HPM_P1;HPM_P2
2022/11/04 00:05:51;;;;;;;38.10;16.02;;;10.30;99.90;;;;;;6179986;23;20233;-79
2022/11/04 00:08:24;;;;;;;38.90;15.10;;;10.30;99.90;;;;;;6134469;23;20065;-77
2022/11/04 00:13:42;;;;;;;36.42;15.25;;;10.30;99.90;;;;;;6157842;23;20025;-77
2022/11/04 00:30:18;;;;;;;33.78;14.02;;;10.40;99.90;;;;;;6243186;22;20091;-78
2022/11/04 00:43:22;;;;;;;36.85;14.77;;;10.40;99.90;;;;;;6202970;22;20021;-79
2022/11/04 00:45:53;;;;;;;35.35;14.57;;;10.30;99.90;;;;;;6191029;23;20028;-79
2022/11/04 00:48:21;;;;;;;35.30;13.93;;;10.20;99.90;;;;;;6216237;22;20023;-79
2022/11/04 00:50:51;;;;;;;36.47;13.45;;;10.20;99.90;;;;;;6192288;22;20068;-79
2022/11/04 01:03:57;;;;;;;31.08;12.18;;;10.10;99.90;;;;;;6170932;23;20730;31
2022/11/04 01:45:13;;;;;;;36.35;14.30;;;10.10;99.90;;;;;;6174624;23;20012;-79
2022/11/04 01:47:45;;;;;;;38.53;12.23;;;10.10;99.90;;;;;;6179150;22;20040;-77
2022/11/04 02:07:21;;;;;;;50.28;16.75;;;10.20;99.90;;;;;;6237376;22;20009;-77
2022/11/04 02:09:52;;;;;;;44.78;16.73;;;10.20;99.90;;;;;;6175779;23;20040;-79
2022/11/04 02:12:55;;;;;;;37.55;14.95;;;10.20;99.90;;;;;;6162720;23;20040;-77
2022/11/04 02:19:45;;;;;;;39.83;13.25;;;10.30;99.90;;;;;;6186474;23;20055;-79
2022/11/04 03:40:21;;;;;;;47.28;17.38;;;10.30;99.90;;;;;;6199954;23;20153;31
2022/11/04 03:46:28;;;;;;;46.58;18.20;;;10.30;99.90;;;;;;6164719;23;20055;-78
2022/11/04 03:49:13;;;;;;;18.67;7.43;;;10.20;99.90;;;;;;6181574;23;20017;-78
2022/11/04 03:51:53;;;;;;;47.90;19.23;;;10.10;99.90;;;;;;6176865;23;20052;31
2022/11/04 05:23:18;;;;;;;29.83;10.27;;;9.90;99.90;;;;;;6167052;23;20032;31
2022/11/04 06:57:14;;;;;;;39.97;17.10;;;9.70;99.90;;;;;;6174982;22;20036;31
2022/11/04 15:43:45;;;;;;;47.17;23.60;;;11.80;99.90;;;;;;6197856;22;20023;-79
2022/11/04 15:46:28;;;;;;;48.85;24.13;;;11.80;99.90;;;;;;6158714;23;20023;-80
2022/11/04 18:20:02;;;;;;;50.60;23.80;;;11.70;99.90;;;;;;6192134;23;21152;31
2022/11/04 18:22:29;;;;;;;53.78;25.80;;;11.70;99.90;;;;;;6176447;23;20018;-78
2022/11/04 18:25:00;;;;;;;67.05;32.85;;;11.70;99.90;;;;;;6168061;22;20055;-78
2022/11/04 18:27:50;;;;;;;91.25;39.38;;;11.70;99.90;;;;;;6121975;23;20048;-78
2022/11/04 18:30:17;;;;;;;85.75;39.78;;;11.70;99.90;;;;;;6148461;23;20025;-78
2022/11/04 18:32:51;;;;;;;73.20;35.42;;;11.70;99.90;;;;;;6153205;23;20065;-78
2022/11/04 18:41:53;;;;;;;66.20;31.63;;;11.60;99.90;;;;;;6230388;22;20015;-78
2022/11/04 18:44:22;;;;;;;63.67;31.23;;;11.60;99.90;;;;;;6166658;23;20020;-78
2022/11/04 18:47:14;;;;;;;52.88;26.55;;;11.60;99.90;;;;;;6226260;22;20029;31
2022/11/04 18:49:42;;;;;;;52.42;24.67;;;11.60;99.90;;;;;;6103247;23;20009;-78
2022/11/04 18:52:12;;;;;;;49.10;23.90;;;11.60;99.90;;;;;;6126097;23;20002;-78
2022/11/04 18:54:41;;;;;;;52.85;24.75;;;11.60;99.90;;;;;;6125663;23;19998;-78
2022/11/04 18:57:10;;;;;;;50.45;23.95;;;11.60;99.90;;;;;;6125933;23;20006;-78
2022/11/04 19:03:09;;;;;;;51.08;25.20;;;11.60;99.90;;;;;;6159586;23;20024;-78
2022/11/04 20:15:29;;;;;;;55.00;26.73;;;11.40;99.90;;;;;;6215292;22;20017;-78
2022/11/04 20:25:05;;;;;;;54.97;25.23;;;11.40;99.90;;;;;;6173023;23;20881;-79
2022/11/04 20:27:32;;;;;;;57.60;26.70;;;11.40;99.90;;;;;;6210527;23;20017;-78
2022/11/04 20:30:03;;;;;;;52.33;25.85;;;11.40;99.90;;;;;;6163402;23;20001;-77
2022/11/04 20:32:32;;;;;;;63.22;27.63;;;11.40;99.90;;;;;;6160980;23;20009;-77
2022/11/04 20:35:00;;;;;;;58.67;27.75;;;11.40;99.90;;;;;;6159741;23;20048;-77
2022/11/04 20:37:28;;;;;;;59.70;29.15;;;11.40;99.90;;;;;;6146723;23;20045;-77
2022/11/04 20:39:55;;;;;;;55.15;25.83;;;11.40;99.90;;;;;;6121115;23;20022;-77
2022/11/04 20:42:23;;;;;;;49.13;25.17;;;11.40;99.90;;;;;;6122274;23;20018;-77
2022/11/04 20:44:52;;;;;;;56.20;27.35;;;11.40;99.90;;;;;;6123484;23;20407;-77
2022/11/04 20:47:21;;;;;;;52.28;24.90;;;11.40;99.90;;;;;;6124583;23;19998;-77
2022/11/04 20:49:48;;;;;;;52.97;25.40;;;11.40;99.90;;;;;;6126455;23;20034;-77
2022/11/04 20:52:16;;;;;;;49.50;23.25;;;11.40;99.90;;;;;;6126656;23;20021;-77
2022/11/04 20:54:44;;;;;;;50.53;23.27;;;11.40;99.90;;;;;;6139332;22;20043;-79
2022/11/04 20:57:11;;;;;;;51.17;24.60;;;11.40;99.90;;;;;;6216796;22;20054;-79
2022/11/04 20:59:39;;;;;;;58.70;25.00;;;11.40;99.90;;;;;;6188945;23;20020;-77
2022/11/04 21:02:09;;;;;;;54.15;25.27;;;11.40;99.90;;;;;;6214737;23;20004;-77
2022/11/04 21:04:38;;;;;;;56.20;26.08;;;11.40;99.90;;;;;;6213357;23;20036;-77
2022/11/04 21:07:06;;;;;;;51.83;24.05;;;11.40;99.90;;;;;;6213590;23;20012;-77
2022/11/04 21:09:33;;;;;;;53.38;25.83;;;11.40;99.90;;;;;;6189579;23;20032;-77
2022/11/04 21:12:04;;;;;;;52.35;25.50;;;11.40;99.90;;;;;;6190199;23;20057;-77
2022/11/04 21:14:34;;;;;;;55.95;25.73;;;11.40;99.90;;;;;;6190777;23;20021;-77
2022/11/04 21:17:04;;;;;;;59.13;26.67;;;11.40;99.90;;;;;;6216157;23;20028;-77
2022/11/04 21:19:32;;;;;;;54.80;27.10;;;11.40;99.90;;;;;;6188976;23;20024;-77
2022/11/04 21:21:59;;;;;;;54.63;28.17;;;11.40;99.90;;;;;;6163342;23;20001;-77
2022/11/04 21:24:28;;;;;;;65.50;31.98;;;11.40;99.90;;;;;;6211675;23;20076;-79
2022/11/04 21:27:04;;;;;;;76.05;33.78;;;11.40;99.90;;;;;;6209886;23;20017;-78
2022/11/04 21:29:32;;;;;;;78.03;33.28;;;11.40;99.90;;;;;;6183316;23;20020;-79
2022/11/04 21:32:00;;;;;;;69.75;33.17;;;11.40;99.90;;;;;;6211320;23;20008;-79
2022/11/04 21:38:06;;;;;;;69.35;32.83;;;11.30;99.90;;;;;;6169524;23;20846;31
2022/11/04 21:40:34;;;;;;;57.60;28.63;;;11.40;99.90;;;;;;6125303;23;19998;-79
2022/11/04 21:43:03;;;;;;;57.17;28.17;;;11.30;99.90;;;;;;6127256;23;20006;-79
2022/11/04 22:22:16;;;;;;;62.95;29.25;;;11.30;99.90;;;;;;6200637;23;20033;-79
2022/11/04 22:49:19;;;;;;;79.40;34.30;;;11.40;99.90;;;;;;6196684;23;20080;-78
2022/11/04 22:51:46;;;;;;;95.38;38.95;;;11.40;99.90;;;;;;6164905;23;20021;-78
2022/11/04 22:54:13;;;;;;;108.78;47.45;;;11.40;99.90;;;;;;6170025;23;20404;-78
2022/11/04 22:57:00;;;;;;;94.53;39.42;;;11.40;99.90;;;;;;6131407;23;20480;-78
2022/11/04 22:59:27;;;;;;;93.50;39.50;;;11.40;99.90;;;;;;6133009;23;20022;-78
2022/11/04 23:01:54;;;;;;;94.43;40.10;;;11.40;99.90;;;;;;6130185;23;20390;-78
2022/11/04 23:04:22;;;;;;;94.22;37.95;;;11.40;99.90;;;;;;6129829;23;20029;-78
2022/11/04 23:06:49;;;;;;;86.68;37.55;;;11.40;99.90;;;;;;6130758;23;20017;-78
2022/11/04 23:09:16;;;;;;;91.05;37.45;;;11.40;99.90;;;;;;6131621;23;20021;-78
2022/11/04 23:20:13;;;;;;;85.15;32.88;;;11.20;99.90;;;;;;6136245;23;20056;-78
2022/11/04 23:25:31;;;;;;;80.75;30.65;;;11.20;99.90;;;;;;6142548;23;20522;-77
2022/11/04 23:30:50;;;;;;;72.72;27.63;;;11.10;99.90;;;;;;6189833;23;20027;-78
2022/11/04 23:37:10;;;;;;;71.45;27.13;;;11.10;99.90;;;;;;6190150;23;20017;-78
2022/11/04 23:38:50;;;;;;;69.63;26.77;;;11.00;99.90;;;;;;6190618;23;20028;-78
2022/11/04 23:44:03;;;;;;;72.15;26.35;;;11.00;99.90;;;;;;6192487;23;20024;-78
